Terminal Aerodrome Forecast
Issued by NWS Lake Charles, LA

Home | Current Version | Previous Version | Text Only | Print | Product List | Glossary On
Versions: 1 2 3 4 5 6 7 8 9 10 11 12 13 14 15
000
FTUS44 KLCH 061121
TAFARA
TAF
KARA 061121Z 0612/0712 16003KT P6SM BKN250
     FM061400 18008KT P6SM SCT025 BKN250
      TEMPO 0614/0616 BKN025
     FM070000 17005KT P6SM BKN250
      AMD NOT SKED=

USA.gov is the U.S. government's official web portal to all federal, state and local government web resources and services.